createdAt,value
2017-10-07T00:00:30.343Z,99454
2017-10-07T00:02:58.411Z,99463
2017-10-07T00:05:26.488Z,99470
2017-10-07T00:07:54.542Z,99466
2017-10-07T00:10:22.623Z,99464
2017-10-07T00:12:50.697Z,99480
2017-10-07T00:15:18.774Z,99464
2017-10-07T00:17:46.831Z,99469
2017-10-07T00:20:14.911Z,99469
2017-10-07T00:22:43.097Z,99466
2017-10-07T00:25:11.180Z,99473
2017-10-07T00:27:40.024Z,99468
2017-10-07T00:30:08.108Z,99468
2017-10-07T00:32:36.184Z,99468
2017-10-07T00:35:04.337Z,99466
2017-10-07T00:37:32.423Z,99463
2017-10-07T00:40:00.520Z,99471
2017-10-07T00:42:28.592Z,99476
2017-10-07T00:44:56.671Z,99463
2017-10-07T00:47:24.730Z,99475
2017-10-07T00:49:52.815Z,99470
2017-10-07T00:52:20.880Z,99476
2017-10-07T00:54:48.971Z,99481
2017-10-07T00:57:17.798Z,99480
2017-10-07T00:59:46.651Z,99475
2017-10-07T01:02:15.483Z,99472
2017-10-07T01:04:43.567Z,99472
2017-10-07T01:07:11.632Z,99476
2017-10-07T01:09:39.712Z,99468
2017-10-07T01:12:07.795Z,99473
2017-10-07T01:14:35.884Z,99467
2017-10-07T01:17:03.955Z,99466
2017-10-07T01:19:32.040Z,99467
2017-10-07T01:22:00.107Z,99469
2017-10-07T01:24:28.188Z,99471
2017-10-07T01:26:56.260Z,99465
2017-10-07T01:29:24.339Z,99471
2017-10-07T01:31:53.188Z,99468
2017-10-07T01:34:21.262Z,99472
2017-10-07T01:36:49.335Z,99468
2017-10-07T01:39:17.415Z,99476
2017-10-07T01:41:45.493Z,99468
2017-10-07T01:44:13.588Z,99472
2017-10-07T01:46:41.655Z,99473
2017-10-07T01:49:09.746Z,99474
2017-10-07T01:51:37.799Z,99474
2017-10-07T01:54:05.878Z,99471
2017-10-07T01:56:34.095Z,99470
2017-10-07T01:59:02.172Z,99485
2017-10-07T02:01:30.248Z,99480
2017-10-07T02:03:59.091Z,99478
2017-10-07T02:06:27.935Z,99473
2017-10-07T02:08:56.032Z,99474
2017-10-07T02:11:24.107Z,99470
2017-10-07T02:13:52.191Z,99477
2017-10-07T02:16:20.255Z,99482
2017-10-07T02:18:48.324Z,99477
2017-10-07T02:21:16.411Z,99494
2017-10-07T02:23:44.491Z,99485
2017-10-07T02:26:13.335Z,99483
2017-10-07T02:28:42.171Z,99492
2017-10-07T02:31:10.252Z,99492
2017-10-07T02:33:39.094Z,99488
2017-10-07T02:36:07.175Z,99482
2017-10-07T02:38:35.259Z,99482
2017-10-07T02:41:03.334Z,99475
2017-10-07T02:43:31.403Z,99485
2017-10-07T02:45:59.487Z,99485
2017-10-07T02:48:27.559Z,99479
2017-10-07T02:50:55.634Z,99485
2017-10-07T02:53:23.711Z,99479
2017-10-07T02:55:51.796Z,99472
2017-10-07T02:58:20.635Z,99474
2017-10-07T03:00:48.715Z,99474
2017-10-07T03:03:16.795Z,99470
2017-10-07T03:05:45.799Z,99471
2017-10-07T03:08:13.870Z,99480
2017-10-07T03:10:41.951Z,99477
2017-10-07T03:13:10.028Z,99488
2017-10-07T03:15:38.107Z,99480
2017-10-07T03:18:06.962Z,99477
2017-10-07T03:20:35.329Z,99480
2017-10-07T03:23:03.402Z,99478
2017-10-07T03:25:31.488Z,99482
2017-10-07T03:27:59.583Z,99481
2017-10-07T03:30:27.672Z,99482
2017-10-07T03:32:56.515Z,99479
2017-10-07T03:35:24.598Z,99472
2017-10-07T03:37:52.671Z,99477
2017-10-07T03:40:20.767Z,99478
2017-10-07T03:42:48.837Z,99476
2017-10-07T03:45:16.924Z,99478
2017-10-07T03:47:45.759Z,99471
2017-10-07T03:50:13.848Z,99481
2017-10-07T03:52:41.919Z,99485
2017-10-07T03:55:09.998Z,99486
2017-10-07T03:57:38.068Z,99481
2017-10-07T04:00:06.159Z,99487
2017-10-07T04:02:34.232Z,99484
2017-10-07T04:05:02.315Z,99491
2017-10-07T04:07:30.391Z,99487
2017-10-07T04:09:59.242Z,99490
2017-10-07T04:12:27.318Z,99499
2017-10-07T04:14:55.437Z,99497
2017-10-07T04:17:23.491Z,99489
2017-10-07T04:19:51.579Z,99492
2017-10-07T04:22:20.440Z,99485
2017-10-07T04:24:48.552Z,99487
2017-10-07T04:27:17.392Z,99491
2017-10-07T04:29:45.472Z,99493
2017-10-07T04:32:13.540Z,99502
2017-10-07T04:34:42.399Z,99504
2017-10-07T04:37:10.476Z,99499
2017-10-07T04:39:38.555Z,99510
2017-10-07T04:42:07.396Z,99522
2017-10-07T04:44:35.475Z,99518
2017-10-07T04:47:04.303Z,99515
2017-10-07T04:49:32.388Z,99512
2017-10-07T04:52:00.460Z,99511
2017-10-07T04:54:28.570Z,99511
2017-10-07T04:56:56.648Z,99507
2017-10-07T04:59:24.714Z,99512
2017-10-07T05:01:52.787Z,99520
2017-10-07T05:04:20.855Z,99522
2017-10-07T05:06:48.935Z,99520
2017-10-07T05:09:17.007Z,99517
2017-10-07T05:11:45.097Z,99525
2017-10-07T05:14:13.935Z,99528
2017-10-07T05:16:42.021Z,99522
2017-10-07T05:19:10.091Z,99525
2017-10-07T05:21:38.176Z,99516
2017-10-07T05:24:06.248Z,99532
2017-10-07T05:26:34.333Z,99528
2017-10-07T05:29:02.404Z,99534
2017-10-07T05:31:30.479Z,99526
2017-10-07T05:33:58.556Z,99529
2017-10-07T05:36:27.406Z,99533
2017-10-07T05:38:55.487Z,99531
2017-10-07T05:41:23.586Z,99527
2017-10-07T05:43:51.647Z,99533
2017-10-07T05:46:19.739Z,99527
2017-10-07T05:48:48.594Z,99530
2017-10-07T05:51:16.683Z,99535
2017-10-07T05:53:44.760Z,99535
2017-10-07T05:56:12.848Z,99527
2017-10-07T05:58:40.920Z,99527
2017-10-07T06:01:09.094Z,99529
2017-10-07T06:03:37.160Z,99531
2017-10-07T06:06:05.235Z,99531
2017-10-07T06:08:33.314Z,99529
2017-10-07T06:11:01.387Z,99525
2017-10-07T06:13:30.223Z,99528
2017-10-07T06:15:58.315Z,99538
2017-10-07T06:18:26.399Z,99529
2017-10-07T06:20:54.476Z,99533
2017-10-07T06:23:22.552Z,99524
2017-10-07T06:25:50.676Z,99545
2017-10-07T06:28:18.735Z,99543
2017-10-07T06:30:46.825Z,99526
2017-10-07T06:33:14.899Z,99534
2017-10-07T06:35:42.974Z,99534
2017-10-07T06:38:11.046Z,99538
2017-10-07T06:40:39.119Z,99535
2017-10-07T06:43:07.196Z,99537
2017-10-07T06:45:35.284Z,99545
2017-10-07T06:48:03.356Z,99535
2017-10-07T06:50:31.431Z,99532
2017-10-07T06:52:59.504Z,99536
2017-10-07T06:55:27.592Z,99539
2017-10-07T06:57:55.665Z,99538
2017-10-07T07:00:23.748Z,99538
2017-10-07T07:02:51.819Z,99540
2017-10-07T07:05:19.896Z,99543
2017-10-07T07:07:47.983Z,99537
2017-10-07T07:10:16.832Z,99531
2017-10-07T07:12:44.931Z,99525
2017-10-07T07:15:13.011Z,99521
2017-10-07T07:17:41.865Z,99526
2017-10-07T07:20:09.955Z,99526
2017-10-07T07:22:38.031Z,99527
2017-10-07T07:25:06.096Z,99524
2017-10-07T07:27:34.203Z,99523
2017-10-07T07:30:03.047Z,99527
2017-10-07T07:32:31.126Z,99538
2017-10-07T07:34:59.196Z,99546
2017-10-07T07:37:27.280Z,99546
2017-10-07T07:39:55.366Z,99542
2017-10-07T07:42:23.448Z,99537
2017-10-07T07:44:52.284Z,99543
2017-10-07T07:47:21.128Z,99547
2017-10-07T07:49:49.967Z,99551
2017-10-07T07:52:18.052Z,99550
2017-10-07T07:54:46.140Z,99530
2017-10-07T07:57:14.233Z,99545
2017-10-07T07:59:42.295Z,99550
2017-10-07T08:02:10.382Z,99547
2017-10-07T08:04:39.223Z,99542
2017-10-07T08:07:07.402Z,99548
2017-10-07T08:09:35.473Z,99544
2017-10-07T08:12:03.556Z,99547
2017-10-07T08:14:31.632Z,99554
2017-10-07T08:16:59.708Z,99564
2017-10-07T08:19:27.785Z,99550
2017-10-07T08:21:55.863Z,99546
2017-10-07T08:24:23.932Z,99535
2017-10-07T08:26:52.019Z,99551
2017-10-07T08:29:20.123Z,99546
2017-10-07T08:31:48.224Z,99545
2017-10-07T08:34:16.303Z,99539
2017-10-07T08:36:44.395Z,99528
2017-10-07T08:39:13.391Z,99523
2017-10-07T08:41:41.472Z,99530
2017-10-07T08:44:09.547Z,99523
2017-10-07T08:46:37.623Z,99532
2017-10-07T08:49:05.703Z,99521
2017-10-07T08:51:34.560Z,99521
2017-10-07T08:54:02.631Z,99519
2017-10-07T08:56:30.708Z,99518
2017-10-07T08:58:58.803Z,99518
2017-10-07T09:01:26.874Z,99505
2017-10-07T09:03:54.978Z,99505
2017-10-07T09:06:23.043Z,99499
2017-10-07T09:08:51.133Z,99497
2017-10-07T09:11:19.205Z,99499
2017-10-07T09:13:47.300Z,99495
2017-10-07T09:16:15.371Z,99491
2017-10-07T09:18:43.465Z,99485
2017-10-07T09:21:11.531Z,99481
2017-10-07T09:23:39.617Z,99476
2017-10-07T09:26:07.699Z,99483
2017-10-07T09:28:35.780Z,99476
2017-10-07T09:31:03.864Z,99468
2017-10-07T09:33:32.774Z,99464
2017-10-07T09:36:00.859Z,99470
2017-10-07T09:38:28.978Z,99466
2017-10-07T09:40:57.847Z,99452
2017-10-07T09:43:25.924Z,99451
2017-10-07T09:45:54.012Z,99439
2017-10-07T09:48:22.106Z,99443
2017-10-07T09:50:50.183Z,99442
2017-10-07T09:53:19.028Z,99435
2017-10-07T09:55:47.104Z,99435
2017-10-07T09:58:15.191Z,99440
2017-10-07T10:00:43.264Z,99433
2017-10-07T10:03:17.234Z,99436
2017-10-07T10:05:45.311Z,99424
2017-10-07T10:08:13.424Z,99420
2017-10-07T10:10:42.281Z,99424
2017-10-07T10:13:10.380Z,99422
2017-10-07T10:15:38.456Z,99419
2017-10-07T10:18:06.540Z,99417
2017-10-07T10:20:34.610Z,99422
2017-10-07T10:23:02.682Z,99423
2017-10-07T10:25:30.781Z,99416
2017-10-07T10:27:59.615Z,99405
2017-10-07T10:30:27.696Z,99408
2017-10-07T10:32:55.762Z,99411
2017-10-07T10:35:23.851Z,99417
2017-10-07T10:37:51.926Z,99396
2017-10-07T10:40:20.010Z,99404
2017-10-07T10:42:48.082Z,99389
2017-10-07T10:45:16.159Z,99391
2017-10-07T10:47:44.231Z,99395
2017-10-07T10:50:12.307Z,99400
2017-10-07T10:52:41.136Z,99390
2017-10-07T10:55:09.212Z,99395
2017-10-07T10:57:38.051Z,99393
2017-10-07T11:00:06.127Z,99372
2017-10-07T11:02:34.353Z,99380
2017-10-07T11:05:02.524Z,99376
2017-10-07T11:07:30.640Z,99376
2017-10-07T11:09:58.926Z,99366
2017-10-07T11:12:28.098Z,99369
2017-10-07T11:14:56.247Z,99366
2017-10-07T11:17:24.921Z,99366
2017-10-07T11:19:53.016Z,99360
2017-10-07T11:22:21.104Z,99349
2017-10-07T11:24:49.182Z,99348
2017-10-07T11:27:17.264Z,99346
2017-10-07T11:29:45.336Z,99342
2017-10-07T11:32:13.423Z,99321
2017-10-07T11:34:41.491Z,99322
2017-10-07T11:37:09.563Z,99311
2017-10-07T11:39:37.631Z,99323
2017-10-07T11:42:05.711Z,99310
2017-10-07T11:44:33.786Z,99311
2017-10-07T11:47:02.640Z,99309
2017-10-07T11:49:30.720Z,99308
2017-10-07T11:51:58.798Z,99304
2017-10-07T11:54:26.866Z,99312
2017-10-07T11:56:54.952Z,99299
2017-10-07T11:59:23.023Z,99292
2017-10-07T12:01:51.123Z,99288
2017-10-07T12:04:19.958Z,99283
2017-10-07T12:06:48.048Z,99273
2017-10-07T12:09:16.119Z,99277
2017-10-07T12:11:44.220Z,99275
2017-10-07T12:14:12.300Z,99274
2017-10-07T12:16:41.133Z,99270
2017-10-07T12:19:09.975Z,99269
2017-10-07T12:21:38.048Z,99266
2017-10-07T12:24:06.136Z,99268
2017-10-07T12:26:34.980Z,99265
2017-10-07T12:29:03.050Z,99263
2017-10-07T12:31:31.126Z,99257
2017-10-07T12:33:59.210Z,99255
2017-10-07T12:36:27.283Z,99255
2017-10-07T12:38:55.371Z,99245
2017-10-07T12:41:23.463Z,99232
2017-10-07T12:43:52.306Z,99222
2017-10-07T12:46:20.392Z,99223
2017-10-07T12:48:48.476Z,99220
2017-10-07T12:51:16.550Z,99218
2017-10-07T12:53:44.623Z,99222
2017-10-07T12:56:12.706Z,99204
2017-10-07T12:58:41.563Z,99209
2017-10-07T13:01:09.648Z,99202
2017-10-07T13:03:37.718Z,99202
2017-10-07T13:06:05.804Z,99197
2017-10-07T13:08:33.887Z,99196
2017-10-07T13:11:02.738Z,99202
2017-10-07T13:13:30.812Z,99192
2017-10-07T13:15:58.900Z,99189
2017-10-07T13:18:26.975Z,99181
2017-10-07T13:20:55.061Z,99173
2017-10-07T13:23:23.136Z,99184
2017-10-07T13:25:51.994Z,99181
2017-10-07T13:28:20.078Z,99170
2017-10-07T13:30:48.170Z,99155
2017-10-07T13:33:17.088Z,99157
2017-10-07T13:35:45.245Z,99160
2017-10-07T13:38:14.100Z,99162
2017-10-07T13:40:42.174Z,99169
2017-10-07T13:43:10.255Z,99176
2017-10-07T13:45:38.327Z,99168
2017-10-07T13:48:06.402Z,99164
2017-10-07T13:50:34.474Z,99169
2017-10-07T13:53:02.554Z,99164
2017-10-07T13:55:30.633Z,99165
2017-10-07T13:57:58.703Z,99155
2017-10-07T14:00:26.771Z,99159
2017-10-07T14:02:54.880Z,99146
2017-10-07T14:05:22.939Z,99146
2017-10-07T14:07:51.784Z,99140
2017-10-07T14:10:19.856Z,99151
2017-10-07T14:12:47.931Z,99146
2017-10-07T14:15:16.003Z,99139
2017-10-07T14:17:44.082Z,99138
2017-10-07T14:20:12.164Z,99138
2017-10-07T14:22:40.247Z,99135
2017-10-07T14:25:09.112Z,99145
2017-10-07T14:27:37.216Z,99139
2017-10-07T14:30:05.297Z,99135
2017-10-07T14:32:34.138Z,99127
2017-10-07T14:35:02.210Z,99124
2017-10-07T14:37:30.303Z,99128
2017-10-07T14:39:58.380Z,99123
2017-10-07T14:42:28.813Z,99118
2017-10-07T14:44:56.990Z,99123
2017-10-07T14:47:25.056Z,99114
2017-10-07T14:49:53.141Z,99113
2017-10-07T14:52:21.227Z,99110
2017-10-07T14:54:50.514Z,99105
2017-10-07T14:57:18.770Z,99106
2017-10-07T14:59:47.953Z,99089
2017-10-07T15:02:16.971Z,99091
2017-10-07T15:04:45.435Z,99094
2017-10-07T15:07:14.019Z,99092
2017-10-07T15:09:43.052Z,99093
2017-10-07T15:12:26.611Z,99097
2017-10-07T15:14:54.968Z,99098
2017-10-07T15:17:23.820Z,99085
2017-10-07T15:19:51.896Z,99078
2017-10-07T15:22:19.984Z,99077
2017-10-07T15:24:48.047Z,99081
2017-10-07T15:27:16.126Z,99076
2017-10-07T15:29:44.219Z,99077
2017-10-07T15:32:13.070Z,99067
2017-10-07T15:34:41.147Z,99060
2017-10-07T15:37:09.219Z,99065
2017-10-07T15:39:37.292Z,99068
2017-10-07T15:42:05.378Z,99054
2017-10-07T15:44:33.464Z,99051
2017-10-07T15:47:01.527Z,99050
2017-10-07T15:49:29.606Z,99033
2017-10-07T15:51:57.679Z,99035
2017-10-07T15:54:25.764Z,99026
2017-10-07T15:56:54.632Z,99015
2017-10-07T15:59:22.709Z,99022
2017-10-07T16:01:50.781Z,99018
2017-10-07T16:04:18.864Z,99004
2017-10-07T16:06:46.938Z,99001
2017-10-07T16:09:15.015Z,98994
2017-10-07T16:11:43.851Z,98998
2017-10-07T16:17:50.824Z,98981
2017-10-07T16:20:18.927Z,98980
2017-10-07T16:22:47.777Z,98972
2017-10-07T16:25:16.603Z,98972
2017-10-07T16:27:45.456Z,98978
2017-10-07T16:30:13.528Z,98973
2017-10-07T16:32:43.944Z,98972
2017-10-07T16:35:12.819Z,98973
2017-10-07T16:37:41.202Z,98966
2017-10-07T16:40:09.291Z,98965
2017-10-07T16:42:38.697Z,98964
2017-10-07T16:45:06.770Z,98959
2017-10-07T16:47:34.844Z,98955
2017-10-07T16:50:03.707Z,98964
2017-10-07T16:52:31.785Z,98959
2017-10-07T16:54:59.872Z,98961
2017-10-07T16:57:27.955Z,98959
2017-10-07T16:59:56.788Z,98948
2017-10-07T17:02:24.870Z,98948
2017-10-07T17:04:53.807Z,98944
2017-10-07T17:07:21.908Z,98938
2017-10-07T17:09:49.983Z,98948
2017-10-07T17:12:19.227Z,98938
2017-10-07T17:14:47.419Z,98937
2017-10-07T17:17:15.496Z,98937
2017-10-07T17:19:43.573Z,98939
2017-10-07T17:22:12.411Z,98920
2017-10-07T17:24:40.491Z,98926
2017-10-07T17:27:08.620Z,98931
2017-10-07T17:29:37.466Z,98925
2017-10-07T17:32:05.544Z,98922
2017-10-07T17:34:33.631Z,98920
2017-10-07T17:37:01.759Z,98923
2017-10-07T17:39:29.835Z,98921
2017-10-07T17:41:57.930Z,98913
2017-10-07T17:44:26.007Z,98910
2017-10-07T17:46:54.074Z,98910
2017-10-07T17:49:22.168Z,98908
2017-10-07T17:51:50.253Z,98896
2017-10-07T17:54:18.315Z,98914
2017-10-07T17:56:46.395Z,98910
2017-10-07T17:59:14.468Z,98912
2017-10-07T18:01:42.556Z,98909
2017-10-07T18:04:11.402Z,98920
2017-10-07T18:06:39.493Z,98919
2017-10-07T18:09:07.563Z,98919
2017-10-07T18:11:35.647Z,98920
2017-10-07T18:14:03.724Z,98908
2017-10-07T18:16:31.870Z,98911
2017-10-07T18:19:00.748Z,98909
2017-10-07T18:21:30.016Z,98904
2017-10-07T18:23:58.088Z,98907
2017-10-07T18:26:26.177Z,98900
2017-10-07T18:28:54.253Z,98891
2017-10-07T18:31:22.340Z,98889
2017-10-07T18:33:50.412Z,98889
2017-10-07T18:36:18.487Z,98887
2017-10-07T18:38:46.575Z,98879
2017-10-07T18:41:14.664Z,98870
2017-10-07T18:43:42.739Z,98866
2017-10-07T18:46:10.804Z,98873
2017-10-07T18:48:38.883Z,98870
2017-10-07T18:51:06.972Z,98867
2017-10-07T18:53:35.819Z,98854
2017-10-07T18:56:03.895Z,98856
2017-10-07T18:58:31.972Z,98845
2017-10-07T19:01:00.045Z,98837
2017-10-07T19:03:28.130Z,98832
2017-10-07T19:05:56.211Z,98834
2017-10-07T19:08:24.282Z,98827
2017-10-07T19:10:52.351Z,98831
2017-10-07T19:13:20.436Z,98829
2017-10-07T19:15:49.278Z,98831
2017-10-07T19:18:17.364Z,98836
2017-10-07T19:20:45.437Z,98819
2017-10-07T19:23:13.530Z,98823
2017-10-07T19:25:41.595Z,98811
2017-10-07T19:28:09.700Z,98808
2017-10-07T19:30:38.571Z,98807
2017-10-07T19:33:06.635Z,98804
2017-10-07T19:35:34.711Z,98811
2017-10-07T19:38:02.793Z,98812
2017-10-07T19:40:30.872Z,98805
2017-10-07T19:42:59.716Z,98802
2017-10-07T19:45:27.794Z,98805
2017-10-07T19:47:55.870Z,98813
2017-10-07T19:50:23.944Z,98800
2017-10-07T19:52:52.011Z,98796
2017-10-07T19:55:20.092Z,98798
2017-10-07T19:57:48.159Z,98806
2017-10-07T20:00:16.253Z,98803
2017-10-07T20:02:44.323Z,98807
2017-10-07T20:05:12.407Z,98797
2017-10-07T20:07:40.487Z,98788
2017-10-07T20:10:09.344Z,98795
2017-10-07T20:12:37.416Z,98801
2017-10-07T20:15:05.487Z,98781
2017-10-07T20:17:33.563Z,98777
2017-10-07T20:20:01.633Z,98779
2017-10-07T20:22:29.725Z,98776
2017-10-07T20:24:57.793Z,98781
2017-10-07T20:27:25.879Z,98781
2017-10-07T20:29:53.943Z,98787
2017-10-07T20:32:22.023Z,98776
2017-10-07T20:34:50.102Z,98782
2017-10-07T20:37:18.996Z,98783
2017-10-07T20:39:47.843Z,98779
2017-10-07T20:42:15.936Z,98781
2017-10-07T20:44:44.007Z,98787
2017-10-07T20:47:12.084Z,98791
2017-10-07T20:49:40.160Z,98771
2017-10-07T20:52:08.245Z,98766
2017-10-07T20:54:37.099Z,98766
2017-10-07T20:57:05.173Z,98758
2017-10-07T20:59:33.267Z,98759
2017-10-07T21:02:01.336Z,98759
2017-10-07T21:04:29.419Z,98753
2017-10-07T21:06:57.483Z,98762
2017-10-07T21:09:25.563Z,98755
2017-10-07T21:11:53.652Z,98750
2017-10-07T21:14:22.504Z,98745
2017-10-07T21:16:50.582Z,98734
2017-10-07T21:19:18.735Z,98743
2017-10-07T21:21:46.816Z,98748
2017-10-07T21:24:14.897Z,98740
2017-10-07T21:26:42.968Z,98737
2017-10-07T21:29:11.055Z,98736
2017-10-07T21:31:39.135Z,98741
2017-10-07T21:34:08.035Z,98747
2017-10-07T21:36:36.095Z,98739
2017-10-07T21:39:04.187Z,98746
2017-10-07T21:41:33.033Z,98742
2017-10-07T21:44:01.113Z,98741
2017-10-07T21:46:29.199Z,98736
2017-10-07T21:48:57.271Z,98742
2017-10-07T21:51:25.353Z,98738
2017-10-07T21:53:53.422Z,98724
2017-10-07T21:56:21.602Z,98723
2017-10-07T21:58:49.675Z,98725
2017-10-07T22:01:17.751Z,98722
2017-10-07T22:03:45.820Z,98723
2017-10-07T22:06:13.904Z,98720
2017-10-07T22:08:42.759Z,98706
2017-10-07T22:11:10.995Z,98715
2017-10-07T22:13:39.064Z,98714
2017-10-07T22:16:07.153Z,98711
2017-10-07T22:18:35.227Z,98706
2017-10-07T22:21:03.304Z,98700
2017-10-07T22:23:31.379Z,98706
2017-10-07T22:26:00.212Z,98703
2017-10-07T22:28:28.287Z,98704
2017-10-07T22:30:56.364Z,98707
2017-10-07T22:33:24.439Z,98693
2017-10-07T22:35:53.290Z,98698
2017-10-07T22:38:21.368Z,98705
2017-10-07T22:40:49.443Z,98691
2017-10-07T22:43:17.511Z,98697
2017-10-07T22:45:45.594Z,98694
2017-10-07T22:48:13.671Z,98695
2017-10-07T22:50:41.756Z,98700
2017-10-07T22:53:09.827Z,98698
2017-10-07T22:55:37.903Z,98700
2017-10-07T22:58:05.980Z,98698
2017-10-07T23:00:34.827Z,98690
2017-10-07T23:03:02.903Z,98689
2017-10-07T23:05:30.984Z,98686
2017-10-07T23:07:59.051Z,98684
2017-10-07T23:10:27.140Z,98688
2017-10-07T23:12:56.729Z,98676
2017-10-07T23:15:24.926Z,98684
2017-10-07T23:17:53.027Z,98680
2017-10-07T23:20:21.869Z,98668
2017-10-07T23:22:50.710Z,98670
2017-10-07T23:25:19.539Z,98671
2017-10-07T23:27:48.380Z,98669
2017-10-07T23:30:17.215Z,98661
2017-10-07T23:32:46.060Z,98668
2017-10-07T23:35:14.903Z,98662
2017-10-07T23:37:42.995Z,98663
2017-10-07T23:40:11.064Z,98667
2017-10-07T23:42:39.420Z,98662
2017-10-07T23:45:07.503Z,98653
2017-10-07T23:47:36.343Z,98653
2017-10-07T23:50:05.200Z,98642
2017-10-07T23:52:33.267Z,98638
2017-10-07T23:55:01.350Z,98645
2017-10-07T23:57:29.416Z,98643
2017-10-07T23:59:57.494Z,98648
